createdAt,value
2023-03-08T00:01:35.369Z,5.29
2023-03-08T00:04:05.442Z,5.17
2023-03-08T00:06:34.800Z,5.17
2023-03-08T00:09:03.825Z,5.29
2023-03-08T00:11:32.550Z,5.27
2023-03-08T00:14:01.657Z,5.26
2023-03-08T00:16:30.926Z,5.22
2023-03-08T00:18:59.851Z,5.10
2023-03-08T00:21:29.506Z,5.15
2023-03-08T00:24:00.094Z,5.15
2023-03-08T00:26:28.343Z,5.10
2023-03-08T00:28:57.146Z,5.33
2023-03-08T00:31:25.450Z,5.11
2023-03-08T00:33:55.592Z,5.16
2023-03-08T00:36:24.077Z,5.17
2023-03-08T00:38:54.047Z,5.16
2023-03-08T00:41:22.800Z,5.12
2023-03-08T00:43:52.468Z,5.12
2023-03-08T00:46:22.175Z,5.06
2023-03-08T00:48:50.695Z,5.12
2023-03-08T00:51:21.674Z,5.06
2023-03-08T00:53:50.998Z,4.95
2023-03-08T00:56:20.734Z,5.02
2023-03-08T00:58:49.146Z,5.05
2023-03-08T01:01:21.621Z,5.08
2023-03-08T01:03:51.382Z,5.07
2023-03-08T01:06:19.921Z,5.00
2023-03-08T01:08:48.414Z,4.91
2023-03-08T01:11:24.665Z,4.85
2023-03-08T01:13:54.974Z,4.91
2023-03-08T01:16:25.623Z,4.94
2023-03-08T01:18:55.215Z,4.91
2023-03-08T01:21:23.665Z,4.83
2023-03-08T01:23:53.088Z,4.84
2023-03-08T01:26:25.350Z,4.86
2023-03-08T01:28:58.124Z,4.85
2023-03-08T01:31:31.042Z,4.79
2023-03-08T01:34:02.380Z,5.01
2023-03-08T01:36:31.055Z,5.06
2023-03-08T01:39:02.361Z,5.05
2023-03-08T01:41:33.187Z,5.06
2023-03-08T01:44:02.559Z,4.98
2023-03-08T01:46:32.365Z,4.87
2023-03-08T01:49:12.420Z,4.84
2023-03-08T01:51:44.241Z,4.81
2023-03-08T01:54:17.320Z,5.08
2023-03-08T01:56:50.308Z,4.87
2023-03-08T01:59:25.429Z,4.89
2023-03-08T02:01:54.289Z,4.91
2023-03-08T02:04:23.154Z,4.86
2023-03-08T02:06:51.839Z,4.79
2023-03-08T02:09:24.725Z,4.85
2023-03-08T02:12:00.233Z,4.71
2023-03-08T02:14:31.059Z,4.70
2023-03-08T02:17:00.482Z,4.63
2023-03-08T02:19:35.323Z,4.57
2023-03-08T02:22:10.190Z,4.65
2023-03-08T02:24:39.761Z,4.64
2023-03-08T02:27:14.704Z,4.58
2023-03-08T02:29:43.381Z,4.49
2023-03-08T02:32:11.877Z,4.47
2023-03-08T02:34:40.354Z,4.48
2023-03-08T02:37:08.933Z,4.47
2023-03-08T02:39:37.184Z,4.48
2023-03-08T02:42:07.477Z,4.45
2023-03-08T02:44:36.984Z,4.57
2023-03-08T02:47:05.393Z,4.44
2023-03-08T02:49:33.694Z,4.38
2023-03-08T02:52:02.236Z,4.34
2023-03-08T02:54:32.329Z,4.36
2023-03-08T02:57:02.560Z,4.32
2023-03-08T02:59:32.930Z,4.26
2023-03-08T03:02:00.990Z,4.20
2023-03-08T03:04:31.146Z,4.14
2023-03-08T03:07:00.504Z,4.08
2023-03-08T03:09:29.592Z,4.03
2023-03-08T03:11:58.335Z,3.97
2023-03-08T03:14:29.191Z,3.99
2023-03-08T03:17:00.289Z,4.03
2023-03-08T03:19:28.677Z,4.02
2023-03-08T03:21:57.291Z,4.03
2023-03-08T03:24:25.600Z,4.01
2023-03-08T03:26:58.022Z,4.07
2023-03-08T03:29:31.439Z,4.02
2023-03-08T03:32:10.942Z,4.00
2023-03-08T03:34:39.879Z,4.05
2023-03-08T03:37:08.809Z,3.98
2023-03-08T03:39:40.416Z,3.94
2023-03-08T03:42:11.813Z,3.91
2023-03-08T03:44:46.448Z,3.93
2023-03-08T03:47:22.304Z,3.90
2023-03-08T03:49:55.223Z,3.84
2023-03-08T03:52:25.245Z,3.84
2023-03-08T03:55:02.481Z,3.76
2023-03-08T03:57:31.538Z,3.75
2023-03-08T04:00:00.240Z,3.69
2023-03-08T04:02:31.392Z,3.61
2023-03-08T04:05:01.384Z,3.58
2023-03-08T04:07:33.973Z,3.59
2023-03-08T04:10:03.171Z,3.61
2023-03-08T04:12:33.349Z,3.55
2023-03-08T04:15:03.372Z,3.49
2023-03-08T04:17:36.362Z,3.43
2023-03-08T04:20:08.184Z,3.37
2023-03-08T04:22:41.746Z,3.42
2023-03-08T04:25:19.518Z,3.36
2023-03-08T04:27:55.331Z,3.35
2023-03-08T04:30:23.639Z,3.41
2023-03-08T04:32:56.966Z,3.36
2023-03-08T04:35:31.710Z,3.38
2023-03-08T04:37:59.951Z,3.35
2023-03-08T04:40:29.948Z,3.36
2023-03-08T04:43:01.409Z,3.41
2023-03-08T04:45:38.153Z,3.37
2023-03-08T04:48:13.192Z,3.33
2023-03-08T04:50:41.750Z,3.30
2023-03-08T04:53:11.503Z,3.32
2023-03-08T04:55:40.850Z,3.36
2023-03-08T04:58:09.945Z,3.35
2023-03-08T05:00:39.207Z,3.28
2023-03-08T05:03:08.771Z,3.33
2023-03-08T05:05:39.531Z,3.44
2023-03-08T05:08:09.464Z,3.36
2023-03-08T05:10:39.097Z,3.32
2023-03-08T05:13:09.114Z,3.29
2023-03-08T05:15:39.090Z,3.31
2023-03-08T05:18:07.336Z,3.31
2023-03-08T05:20:35.665Z,3.28
2023-03-08T05:23:08.724Z,3.38
2023-03-08T05:25:44.910Z,3.37
2023-03-08T05:28:16.200Z,3.40
2023-03-08T05:30:48.016Z,3.39
2023-03-08T05:33:18.811Z,3.47
2023-03-08T05:35:55.221Z,3.54
2023-03-08T05:38:26.866Z,3.41
2023-03-08T05:40:56.236Z,3.40
2023-03-08T05:43:26.365Z,3.36
2023-03-08T05:45:59.130Z,3.34
2023-03-08T05:48:31.354Z,3.36
2023-03-08T05:50:59.602Z,3.43
2023-03-08T05:53:29.888Z,3.41
2023-03-08T05:55:57.995Z,3.36
2023-03-08T05:58:26.350Z,3.40
2023-03-08T06:00:54.444Z,3.43
2023-03-08T06:03:22.982Z,3.36
2023-03-08T06:05:51.354Z,3.42
2023-03-08T06:08:20.956Z,3.40
2023-03-08T06:10:52.494Z,3.35
2023-03-08T06:13:22.863Z,3.35
2023-03-08T06:15:54.770Z,3.33
2023-03-08T06:18:23.263Z,3.40
2023-03-08T06:20:59.391Z,3.41
2023-03-08T06:23:28.208Z,3.62
2023-03-08T06:25:58.070Z,3.51
2023-03-08T06:28:27.529Z,3.52
2023-03-08T06:30:56.477Z,3.47
2023-03-08T06:33:26.084Z,3.49
2023-03-08T06:35:58.285Z,3.54
2023-03-08T06:38:33.354Z,3.59
2023-03-08T06:41:06.159Z,3.53
2023-03-08T06:43:35.734Z,3.51
2023-03-08T06:46:05.231Z,3.52
2023-03-08T06:48:34.610Z,3.50
2023-03-08T06:51:03.806Z,3.53
2023-03-08T06:53:31.970Z,3.59
2023-03-08T06:56:04.506Z,3.61
2023-03-08T06:58:34.774Z,3.60
2023-03-08T07:01:04.388Z,3.73
2023-03-08T07:03:32.552Z,3.68
2023-03-08T07:06:01.228Z,3.77
2023-03-08T07:08:29.739Z,3.74
2023-03-08T07:10:59.409Z,3.73
2023-03-08T07:13:29.855Z,3.73
2023-03-08T07:15:58.415Z,3.82
2023-03-08T07:18:27.679Z,3.80
2023-03-08T07:20:56.864Z,3.86
2023-03-08T07:23:25.684Z,3.87
2023-03-08T07:25:53.838Z,3.92
2023-03-08T07:28:23.242Z,3.91
2023-03-08T07:30:53.782Z,3.82
2023-03-08T07:33:23.307Z,3.81
2023-03-08T07:35:51.451Z,3.71
2023-03-08T07:38:20.417Z,3.72
2023-03-08T07:40:55.161Z,3.34
2023-03-08T07:43:23.971Z,3.20
2023-03-08T07:46:08.073Z,2.93
2023-03-08T07:48:36.607Z,2.98
2023-03-08T07:51:09.384Z,3.01
2023-03-08T07:53:38.292Z,2.90
2023-03-08T07:56:07.196Z,2.75
2023-03-08T07:58:37.691Z,2.72
2023-03-08T08:01:12.612Z,2.59
2023-03-08T08:03:53.126Z,2.55
2023-03-08T08:06:37.587Z,2.48
2023-03-08T08:09:25.784Z,2.42
2023-03-08T08:12:13.447Z,2.33
2023-03-08T08:15:08.505Z,2.34
2023-03-08T08:17:37.967Z,2.33
2023-03-08T08:20:09.351Z,2.14
2023-03-08T08:22:37.764Z,2.14
2023-03-08T08:25:06.366Z,2.09
2023-03-08T08:27:35.077Z,1.97
2023-03-08T08:30:04.551Z,1.93
2023-03-08T08:32:33.950Z,1.96
2023-03-08T08:35:04.562Z,1.81
2023-03-08T08:37:33.038Z,1.95
2023-03-08T08:40:01.614Z,1.80
2023-03-08T08:42:37.228Z,1.83
2023-03-08T08:45:05.885Z,1.86
2023-03-08T08:47:33.895Z,1.89
2023-03-08T08:50:03.804Z,1.88
2023-03-08T08:52:32.820Z,2.04
2023-03-08T08:55:03.334Z,1.86
2023-03-08T08:57:33.453Z,2.08
2023-03-08T09:00:01.735Z,2.21
2023-03-08T09:03:07.948Z,2.14
2023-03-08T09:06:13.725Z,2.14
2023-03-08T09:08:42.127Z,2.22
2023-03-08T09:11:12.463Z,2.21
2023-03-08T09:14:02.750Z,2.13
2023-03-08T09:16:42.376Z,2.10
2023-03-08T09:22:28.600Z,2.23
2023-03-08T09:25:06.823Z,2.53
2023-03-08T09:27:34.895Z,2.46
2023-03-08T09:30:02.915Z,2.43
2023-03-08T09:32:33.744Z,2.48
2023-03-08T09:35:11.302Z,2.53
2023-03-08T09:37:40.867Z,2.58
2023-03-08T09:40:10.811Z,2.52
2023-03-08T09:42:39.274Z,2.42
2023-03-08T09:45:16.213Z,2.50
2023-03-08T09:47:47.344Z,2.61
2023-03-08T09:50:23.594Z,2.63
2023-03-08T09:53:00.373Z,2.86
2023-03-08T09:55:30.964Z,2.95
2023-03-08T09:58:00.943Z,2.94
2023-03-08T10:17:04.155Z,3.32
2023-03-08T10:25:16.793Z,3.48
2023-03-08T10:27:51.546Z,3.42
2023-03-08T10:30:20.575Z,3.43
2023-03-08T10:32:51.010Z,3.44
2023-03-08T10:35:20.080Z,3.54
2023-03-08T10:37:56.996Z,3.67
2023-03-08T10:40:25.250Z,3.81
2023-03-08T10:42:57.949Z,3.81
2023-03-08T10:45:28.620Z,3.76
2023-03-08T10:47:58.083Z,3.86
2023-03-08T10:50:27.985Z,4.04
2023-03-08T10:52:58.439Z,3.93
2023-03-08T10:55:31.658Z,3.96
2023-03-08T10:58:02.661Z,4.05
2023-03-08T11:00:35.663Z,4.09
2023-03-08T11:03:08.679Z,4.19
2023-03-08T11:05:37.450Z,4.30
2023-03-08T11:08:05.776Z,4.31
2023-03-08T11:10:33.998Z,4.29
2023-03-08T11:13:07.300Z,4.33
2023-03-08T11:15:38.324Z,4.45
2023-03-08T11:18:16.638Z,4.38
2023-03-08T11:20:48.098Z,4.46
2023-03-08T11:23:22.453Z,4.39
2023-03-08T11:25:56.450Z,4.46
2023-03-08T11:28:37.613Z,4.43
2023-03-08T11:31:15.127Z,4.43
2023-03-08T11:34:03.639Z,4.34
2023-03-08T11:36:36.010Z,4.32
2023-03-08T11:39:12.554Z,4.34
2023-03-08T11:41:45.030Z,4.35
2023-03-08T11:44:31.207Z,4.34
2023-03-08T11:47:16.751Z,4.32
2023-03-08T11:49:52.300Z,4.36
2023-03-08T11:52:27.061Z,4.47
2023-03-08T11:55:08.758Z,4.47
2023-03-08T11:57:38.756Z,4.56
2023-03-08T12:00:16.470Z,4.58
2023-03-08T12:02:48.201Z,4.51
2023-03-08T12:05:23.581Z,4.57
2023-03-08T12:07:55.619Z,4.58
2023-03-08T12:10:25.622Z,4.48
2023-03-08T12:13:05.912Z,4.60
2023-03-08T12:15:39.081Z,4.65
2023-03-08T12:18:09.117Z,4.67
2023-03-08T12:20:40.270Z,4.82
2023-03-08T12:23:14.220Z,4.85
2023-03-08T12:25:45.948Z,4.86
2023-03-08T12:28:34.221Z,4.96
2023-03-08T12:31:24.959Z,4.99
2023-03-08T12:33:57.053Z,4.98
2023-03-08T12:36:37.220Z,5.07
2023-03-08T12:39:10.045Z,5.09
2023-03-08T12:41:38.637Z,5.15
2023-03-08T12:44:08.288Z,5.29
2023-03-08T12:47:03.629Z,5.29
2023-03-08T12:49:34.013Z,5.33
2023-03-08T12:52:04.970Z,5.44
2023-03-08T12:54:34.911Z,5.50
2023-03-08T12:57:04.408Z,5.56
2023-03-08T12:59:37.898Z,5.63
2023-03-08T13:02:26.140Z,5.75
2023-03-08T13:05:03.264Z,5.81
2023-03-08T13:07:35.153Z,5.95
2023-03-08T13:10:05.782Z,6.00
2023-03-08T13:13:37.053Z,6.09
2023-03-08T13:16:20.436Z,6.28
2023-03-08T13:21:35.628Z,6.36
2023-03-08T13:24:12.837Z,6.40
2023-03-08T13:26:51.030Z,6.44
2023-03-08T13:29:21.099Z,6.57
2023-03-08T13:31:49.599Z,6.65
2023-03-08T13:34:37.092Z,6.75
2023-03-08T13:37:05.874Z,6.82
2023-03-08T13:39:33.987Z,6.76
2023-03-08T13:42:08.757Z,6.80
2023-03-08T13:44:37.113Z,6.82
2023-03-08T13:47:12.344Z,6.88
2023-03-08T13:49:45.518Z,6.86
2023-03-08T13:52:17.125Z,6.92
2023-03-08T13:54:47.116Z,6.91
2023-03-08T13:57:21.056Z,6.75
2023-03-08T13:59:50.065Z,6.72
2023-03-08T14:02:21.875Z,6.76
2023-03-08T14:04:51.764Z,6.76
2023-03-08T14:07:22.982Z,6.81
2023-03-08T14:09:51.344Z,6.83
2023-03-08T14:12:20.501Z,6.87
2023-03-08T14:14:51.321Z,6.85
2023-03-08T14:17:21.060Z,6.93
2023-03-08T14:19:56.695Z,6.88
2023-03-08T14:22:38.195Z,6.96
2023-03-08T14:25:22.023Z,6.94
2023-03-08T14:27:50.247Z,6.99
2023-03-08T14:30:19.848Z,7.14
2023-03-08T14:33:00.867Z,7.17
2023-03-08T14:35:32.076Z,7.13
2023-03-08T14:38:00.239Z,7.09
2023-03-08T14:40:30.615Z,7.09
2023-03-08T14:46:30.184Z,7.08
2023-03-08T14:49:02.665Z,7.10
2023-03-08T14:51:40.366Z,7.17
2023-03-08T14:54:21.357Z,7.19
2023-03-08T14:56:49.770Z,7.15
2023-03-08T14:59:27.538Z,7.19
2023-03-08T15:01:56.731Z,7.21
2023-03-08T15:04:26.115Z,7.23
2023-03-08T15:07:07.451Z,7.30
2023-03-08T15:09:35.841Z,7.40
2023-03-08T15:12:04.485Z,7.47
2023-03-08T15:14:32.564Z,7.53
2023-03-08T15:17:30.787Z,7.61
2023-03-08T15:19:59.599Z,7.67
2023-03-08T15:22:30.567Z,7.80
2023-03-08T15:25:02.940Z,7.83
2023-03-08T15:27:30.900Z,7.85
2023-03-08T15:29:59.380Z,7.86
2023-03-08T15:32:28.951Z,7.96
2023-03-08T15:34:57.338Z,8.01
2023-03-08T15:37:25.669Z,8.06
2023-03-08T15:39:55.312Z,8.05
2023-03-08T15:42:24.891Z,8.02
2023-03-08T15:44:53.405Z,7.99
2023-03-08T15:47:22.357Z,8.04
2023-03-08T15:49:51.313Z,8.09
2023-03-08T15:52:19.622Z,8.12
2023-03-08T15:54:49.655Z,8.09
2023-03-08T15:57:19.138Z,8.25
2023-03-08T15:59:47.451Z,8.20
2023-03-08T16:02:25.171Z,8.30
2023-03-08T16:04:57.900Z,8.23
2023-03-08T16:07:26.078Z,8.33
2023-03-08T16:10:05.826Z,8.31
2023-03-08T16:12:35.534Z,8.24
2023-03-08T16:15:25.288Z,8.29
2023-03-08T16:18:23.582Z,8.28
2023-03-08T16:21:23.555Z,8.21
2023-03-08T16:24:11.395Z,8.23
2023-03-08T16:26:39.352Z,8.22
2023-03-08T16:29:09.016Z,8.26
2023-03-08T16:31:37.056Z,8.25
2023-03-08T17:08:00.004Z,8.36
2023-03-08T17:10:28.193Z,8.39
2023-03-08T17:12:56.353Z,8.41
2023-03-08T17:15:24.632Z,8.50
2023-03-08T17:17:53.278Z,8.54
2023-03-08T17:20:21.569Z,8.45
2023-03-08T17:22:49.662Z,8.41
2023-03-08T17:25:19.758Z,8.37
2023-03-08T17:27:50.335Z,8.37
2023-03-08T17:30:18.668Z,8.33
2023-03-08T17:32:46.711Z,8.30
2023-03-08T17:35:14.793Z,8.43
2023-03-08T17:37:43.295Z,8.38
2023-03-08T17:40:12.185Z,8.40
2023-03-08T17:42:42.048Z,8.34
2023-03-08T17:45:11.228Z,8.37
2023-03-08T17:47:39.886Z,8.33
2023-03-08T17:50:10.615Z,8.44
2023-03-08T17:52:39.049Z,8.42
2023-03-08T17:55:07.421Z,8.36
2023-03-08T17:57:35.820Z,8.37
2023-03-08T18:00:06.729Z,8.31
2023-03-08T18:02:35.368Z,8.22
2023-03-08T18:05:03.872Z,8.17
2023-03-08T18:07:34.149Z,8.16
2023-03-08T18:10:04.007Z,8.11
2023-03-08T18:12:32.059Z,8.08
2023-03-08T18:15:01.280Z,8.03
2023-03-08T18:17:30.843Z,8.00
2023-03-08T18:19:58.886Z,7.95
2023-03-08T18:22:27.313Z,7.95
2023-03-08T18:24:55.539Z,7.92
2023-03-08T18:27:23.590Z,7.88
2023-03-08T18:29:51.874Z,7.88
2023-03-08T18:32:20.665Z,7.84
2023-03-08T18:34:50.076Z,7.84
2023-03-08T18:37:18.318Z,7.83
2023-03-08T18:39:46.532Z,7.79
2023-03-08T18:42:15.167Z,7.78
2023-03-08T18:44:43.050Z,7.75
2023-03-08T18:47:11.071Z,7.73
2023-03-08T18:49:41.498Z,7.70
2023-03-08T18:52:12.470Z,7.69
2023-03-08T18:54:41.324Z,7.71
2023-03-08T18:57:09.308Z,7.67
2023-03-08T18:59:38.038Z,7.66
2023-03-08T19:02:07.473Z,7.64
2023-03-08T19:04:38.773Z,7.61
2023-03-08T19:07:07.135Z,7.60
2023-03-08T19:09:36.579Z,7.57
2023-03-08T19:12:05.500Z,7.57
2023-03-08T19:14:36.073Z,7.56
2023-03-08T19:17:04.575Z,7.53
2023-03-08T19:19:32.767Z,7.55
2023-03-08T19:22:03.301Z,7.53
2023-03-08T19:24:32.016Z,7.53
2023-03-08T19:27:03.162Z,7.51
2023-03-08T19:29:33.709Z,7.56
2023-03-08T19:32:02.421Z,7.57
2023-03-08T19:34:32.913Z,7.55
2023-03-08T19:37:01.428Z,7.56
2023-03-08T19:39:30.612Z,7.59
2023-03-08T19:42:00.425Z,7.54
2023-03-08T19:44:30.271Z,7.58
2023-03-08T19:46:59.359Z,7.67
2023-03-08T19:49:29.493Z,7.70
2023-03-08T19:51:58.636Z,7.69
2023-03-08T19:54:27.366Z,7.68
2023-03-08T19:56:57.692Z,7.66
2023-03-08T19:59:25.827Z,7.64
2023-03-08T20:01:56.001Z,7.60
2023-03-08T20:04:24.195Z,7.59
2023-03-08T20:06:52.812Z,7.58
2023-03-08T20:09:23.684Z,7.57
2023-03-08T20:11:53.298Z,7.53
2023-03-08T20:14:23.350Z,7.54
2023-03-08T20:16:51.996Z,7.52
2023-03-08T20:19:22.531Z,7.48
2023-03-08T20:21:50.749Z,7.50
2023-03-08T20:24:22.121Z,7.50
2023-03-08T20:26:50.230Z,7.52
2023-03-08T20:29:18.620Z,7.54
2023-03-08T20:31:49.082Z,7.52
2023-03-08T20:34:18.753Z,7.50
2023-03-08T20:37:06.571Z,7.49
2023-03-08T20:39:35.891Z,7.50
2023-03-08T20:42:04.387Z,7.53
2023-03-08T20:44:32.635Z,7.54
2023-03-08T20:47:01.711Z,7.51
2023-03-08T20:49:30.013Z,7.58
2023-03-08T20:51:58.210Z,7.65
2023-03-08T20:54:27.802Z,7.63
2023-03-08T20:56:55.902Z,7.62
2023-03-08T20:59:26.762Z,7.60
2023-03-08T21:01:55.364Z,7.60
2023-03-08T21:04:23.386Z,7.61
2023-03-08T21:06:51.843Z,7.64
2023-03-08T21:09:20.301Z,7.64
2023-03-08T21:11:50.106Z,7.63
2023-03-08T21:14:18.208Z,7.62
2023-03-08T21:16:46.390Z,7.62
2023-03-08T21:19:17.211Z,7.65
2023-03-08T21:21:46.959Z,7.68
2023-03-08T21:24:16.757Z,7.66
2023-03-08T21:26:45.238Z,7.66
2023-03-08T21:29:16.539Z,7.65
2023-03-08T21:31:45.553Z,7.68
2023-03-08T21:34:14.310Z,7.66
2023-03-08T21:36:42.378Z,7.65
2023-03-08T21:39:12.013Z,7.64
2023-03-08T21:41:40.935Z,7.63
2023-03-08T21:44:10.494Z,7.61
2023-03-08T21:46:42.527Z,7.60
2023-03-08T21:49:16.238Z,7.61
2023-03-08T21:51:44.314Z,7.60
2023-03-08T21:54:13.999Z,7.59
2023-03-08T21:56:42.538Z,7.60
2023-03-08T21:59:10.682Z,7.60
2023-03-08T22:01:45.566Z,7.60
2023-03-08T22:04:13.746Z,7.61
2023-03-08T22:06:43.136Z,7.63
2023-03-08T22:09:11.675Z,7.61
2023-03-08T22:11:40.188Z,7.61
2023-03-08T22:14:11.331Z,7.65
2023-03-08T22:16:41.070Z,7.69
2023-03-08T22:19:12.298Z,7.75
2023-03-08T22:21:45.539Z,7.73
2023-03-08T22:24:13.674Z,7.73
2023-03-08T22:26:53.313Z,7.87
2023-03-08T22:29:23.662Z,7.93
2023-03-08T22:31:53.108Z,7.90
2023-03-08T22:34:46.608Z,7.98
2023-03-08T22:37:14.655Z,7.98
2023-03-08T22:39:44.305Z,8.02
2023-03-08T22:42:12.315Z,8.02
2023-03-08T22:44:40.853Z,8.04
2023-03-08T22:47:10.919Z,8.01
2023-03-08T22:49:39.364Z,8.09
2023-03-08T22:52:09.460Z,8.08
2023-03-08T22:54:37.751Z,8.12
2023-03-08T22:57:05.775Z,8.14
2023-03-08T22:59:34.848Z,8.16
2023-03-08T23:02:04.436Z,8.13
2023-03-08T23:04:33.949Z,8.18
2023-03-08T23:07:03.397Z,8.16
2023-03-08T23:09:32.074Z,8.17
2023-03-08T23:12:03.650Z,8.15
2023-03-08T23:14:31.677Z,8.16
2023-03-08T23:17:03.327Z,8.25
2023-03-08T23:19:32.134Z,8.20
2023-03-08T23:22:04.633Z,8.21
2023-03-08T23:24:32.691Z,8.25
2023-03-08T23:27:02.223Z,8.25
2023-03-08T23:29:30.684Z,8.31
2023-03-08T23:31:58.657Z,8.28
2023-03-08T23:34:26.718Z,8.33
2023-03-08T23:36:54.675Z,8.34
2023-03-08T23:39:24.502Z,8.37
2023-03-08T23:41:52.846Z,8.34
2023-03-08T23:44:21.170Z,8.37
2023-03-08T23:46:53.693Z,8.40
2023-03-08T23:49:21.897Z,8.47
2023-03-08T23:51:49.848Z,8.54
2023-03-08T23:54:18.102Z,8.60
2023-03-08T23:56:47.908Z,8.71
2023-03-08T23:59:19.069Z,8.76
